sensor_id;sensor_type;location;lat;lon;timestamp;P1;durP1;ratioP1;P2;durP2;ratioP2
705;SDS011;21234;48.690;9.016;2022-08-25T00:01:09;4.40;;;2.40;;
705;SDS011;21234;48.690;9.016;2022-08-25T00:03:38;3.00;;;2.57;;
705;SDS011;21234;48.690;9.016;2022-08-25T00:06:05;2.80;;;2.50;;
705;SDS011;21234;48.690;9.016;2022-08-25T00:08:34;2.70;;;2.50;;
705;SDS011;21234;48.690;9.016;2022-08-25T00:11:02;2.93;;;2.67;;
705;SDS011;21234;48.690;9.016;2022-08-25T00:13:31;2.60;;;2.40;;
705;SDS011;21234;48.690;9.016;2022-08-25T00:15:58;3.17;;;2.87;;
705;SDS011;21234;48.690;9.016;2022-08-25T00:18:25;3.40;;;2.97;;
705;SDS011;21234;48.690;9.016;2022-08-25T00:20:52;3.90;;;2.93;;
705;SDS011;21234;48.690;9.016;2022-08-25T00:23:19;3.10;;;2.80;;
705;SDS011;21234;48.690;9.016;2022-08-25T00:25:47;2.30;;;2.10;;
705;SDS011;21234;48.690;9.016;2022-08-25T00:28:14;3.13;;;2.40;;
705;SDS011;21234;48.690;9.016;2022-08-25T00:30:42;3.00;;;2.80;;
705;SDS011;21234;48.690;9.016;2022-08-25T00:33:09;3.90;;;2.70;;
705;SDS011;21234;48.690;9.016;2022-08-25T00:35:36;3.47;;;2.93;;
705;SDS011;21234;48.690;9.016;2022-08-25T00:38:04;3.00;;;2.67;;
705;SDS011;21234;48.690;9.016;2022-08-25T00:40:31;2.83;;;2.53;;
705;SDS011;21234;48.690;9.016;2022-08-25T00:42:59;2.70;;;2.37;;
705;SDS011;21234;48.690;9.016;2022-08-25T00:45:25;3.27;;;2.97;;
705;SDS011;21234;48.690;9.016;2022-08-25T00:47:52;3.23;;;2.97;;
705;SDS011;21234;48.690;9.016;2022-08-25T00:50:19;2.53;;;2.33;;
705;SDS011;21234;48.690;9.016;2022-08-25T00:52:49;3.13;;;2.93;;
705;SDS011;21234;48.690;9.016;2022-08-25T00:55:20;3.00;;;2.70;;
705;SDS011;21234;48.690;9.016;2022-08-25T00:57:51;2.63;;;2.43;;
705;SDS011;21234;48.690;9.016;2022-08-25T01:00:24;2.90;;;2.60;;
705;SDS011;21234;48.690;9.016;2022-08-25T01:02:53;3.40;;;3.10;;
705;SDS011;21234;48.690;9.016;2022-08-25T01:05:20;3.40;;;3.10;;
705;SDS011;21234;48.690;9.016;2022-08-25T01:07:49;3.50;;;2.67;;
705;SDS011;21234;48.690;9.016;2022-08-25T01:10:18;3.20;;;2.90;;
705;SDS011;21234;48.690;9.016;2022-08-25T01:12:46;3.67;;;3.13;;
705;SDS011;21234;48.690;9.016;2022-08-25T01:15:14;3.97;;;3.00;;
705;SDS011;21234;48.690;9.016;2022-08-25T01:17:45;3.80;;;3.10;;
705;SDS011;21234;48.690;9.016;2022-08-25T01:20:14;3.77;;;3.40;;
705;SDS011;21234;48.690;9.016;2022-08-25T01:22:44;4.13;;;2.90;;
705;SDS011;21234;48.690;9.016;2022-08-25T01:25:16;3.27;;;3.03;;
705;SDS011;21234;48.690;9.016;2022-08-25T01:27:53;3.07;;;2.80;;
705;SDS011;21234;48.690;9.016;2022-08-25T01:30:20;4.13;;;2.60;;
705;SDS011;21234;48.690;9.016;2022-08-25T01:32:47;3.50;;;3.20;;
705;SDS011;21234;48.690;9.016;2022-08-25T01:35:14;2.90;;;2.70;;
705;SDS011;21234;48.690;9.016;2022-08-25T01:37:40;3.23;;;3.00;;
705;SDS011;21234;48.690;9.016;2022-08-25T01:40:09;3.03;;;2.73;;
705;SDS011;21234;48.690;9.016;2022-08-25T01:42:42;3.23;;;2.93;;
705;SDS011;21234;48.690;9.016;2022-08-25T01:45:17;3.60;;;2.77;;
705;SDS011;21234;48.690;9.016;2022-08-25T01:47:44;5.63;;;3.07;;
705;SDS011;21234;48.690;9.016;2022-08-25T01:50:11;3.60;;;3.30;;
705;SDS011;21234;48.690;9.016;2022-08-25T01:52:44;4.63;;;3.57;;
705;SDS011;21234;48.690;9.016;2022-08-25T01:55:16;3.87;;;3.53;;
705;SDS011;21234;48.690;9.016;2022-08-25T01:57:43;3.90;;;3.13;;
705;SDS011;21234;48.690;9.016;2022-08-25T02:00:11;3.03;;;2.77;;
705;SDS011;21234;48.690;9.016;2022-08-25T02:02:39;3.80;;;3.20;;
705;SDS011;21234;48.690;9.016;2022-08-25T02:05:07;3.37;;;3.07;;
705;SDS011;21234;48.690;9.016;2022-08-25T02:07:34;3.10;;;2.90;;
705;SDS011;21234;48.690;9.016;2022-08-25T02:10:01;3.90;;;3.60;;
705;SDS011;21234;48.690;9.016;2022-08-25T02:12:29;3.87;;;3.57;;
705;SDS011;21234;48.690;9.016;2022-08-25T02:14:56;3.40;;;3.07;;
705;SDS011;21234;48.690;9.016;2022-08-25T02:17:23;4.37;;;3.90;;
705;SDS011;21234;48.690;9.016;2022-08-25T02:19:50;4.60;;;3.63;;
705;SDS011;21234;48.690;9.016;2022-08-25T02:22:17;6.83;;;3.57;;
705;SDS011;21234;48.690;9.016;2022-08-25T02:24:43;3.67;;;3.37;;
705;SDS011;21234;48.690;9.016;2022-08-25T02:27:10;3.97;;;3.37;;
705;SDS011;21234;48.690;9.016;2022-08-25T02:29:38;3.53;;;3.23;;
705;SDS011;21234;48.690;9.016;2022-08-25T02:32:06;4.30;;;4.00;;
705;SDS011;21234;48.690;9.016;2022-08-25T02:34:33;3.70;;;3.40;;
705;SDS011;21234;48.690;9.016;2022-08-25T02:37:00;3.10;;;2.90;;
705;SDS011;21234;48.690;9.016;2022-08-25T02:39:27;3.20;;;2.90;;
705;SDS011;21234;48.690;9.016;2022-08-25T02:41:54;3.03;;;2.83;;
705;SDS011;21234;48.690;9.016;2022-08-25T02:44:20;4.20;;;3.53;;
705;SDS011;21234;48.690;9.016;2022-08-25T02:46:49;3.50;;;3.17;;
705;SDS011;21234;48.690;9.016;2022-08-25T02:49:15;4.27;;;3.70;;
705;SDS011;21234;48.690;9.016;2022-08-25T02:51:42;3.30;;;3.00;;
705;SDS011;21234;48.690;9.016;2022-08-25T02:54:09;3.50;;;3.20;;
705;SDS011;21234;48.690;9.016;2022-08-25T02:56:36;3.37;;;3.10;;
705;SDS011;21234;48.690;9.016;2022-08-25T02:59:03;3.90;;;3.60;;
705;SDS011;21234;48.690;9.016;2022-08-25T03:01:30;4.37;;;3.97;;
705;SDS011;21234;48.690;9.016;2022-08-25T03:03:59;3.60;;;3.17;;
705;SDS011;21234;48.690;9.016;2022-08-25T03:06:26;3.60;;;3.30;;
705;SDS011;21234;48.690;9.016;2022-08-25T03:08:53;4.03;;;3.70;;
705;SDS011;21234;48.690;9.016;2022-08-25T03:11:21;3.20;;;2.80;;
705;SDS011;21234;48.690;9.016;2022-08-25T03:13:50;4.50;;;4.10;;
705;SDS011;21234;48.690;9.016;2022-08-25T03:16:18;3.43;;;3.13;;
705;SDS011;21234;48.690;9.016;2022-08-25T03:18:45;3.50;;;3.17;;
705;SDS011;21234;48.690;9.016;2022-08-25T03:21:14;4.80;;;4.37;;
705;SDS011;21234;48.690;9.016;2022-08-25T03:23:41;3.93;;;3.63;;
705;SDS011;21234;48.690;9.016;2022-08-25T03:26:08;4.03;;;3.67;;
705;SDS011;21234;48.690;9.016;2022-08-25T03:28:52;3.13;;;2.83;;
705;SDS011;21234;48.690;9.016;2022-08-25T03:31:20;3.70;;;3.40;;
705;SDS011;21234;48.690;9.016;2022-08-25T03:33:47;4.23;;;3.93;;
705;SDS011;21234;48.690;9.016;2022-08-25T03:36:15;4.03;;;3.73;;
705;SDS011;21234;48.690;9.016;2022-08-25T03:38:42;3.57;;;3.27;;
705;SDS011;21234;48.690;9.016;2022-08-25T03:41:13;3.47;;;3.17;;
705;SDS011;21234;48.690;9.016;2022-08-25T03:43:40;4.40;;;3.13;;
705;SDS011;21234;48.690;9.016;2022-08-25T03:46:08;4.00;;;3.60;;
705;SDS011;21234;48.690;9.016;2022-08-25T03:48:35;3.47;;;3.03;;
705;SDS011;21234;48.690;9.016;2022-08-25T03:51:02;2.93;;;2.73;;
705;SDS011;21234;48.690;9.016;2022-08-25T03:53:30;3.90;;;3.40;;
705;SDS011;21234;48.690;9.016;2022-08-25T03:55:57;3.27;;;2.97;;
705;SDS011;21234;48.690;9.016;2022-08-25T03:58:23;4.73;;;3.80;;
705;SDS011;21234;48.690;9.016;2022-08-25T04:00:50;3.13;;;2.83;;
705;SDS011;21234;48.690;9.016;2022-08-25T04:03:17;3.90;;;3.60;;
705;SDS011;21234;48.690;9.016;2022-08-25T04:05:44;4.53;;;4.13;;
705;SDS011;21234;48.690;9.016;2022-08-25T04:08:11;3.23;;;2.97;;
705;SDS011;21234;48.690;9.016;2022-08-25T04:10:39;3.07;;;2.83;;
705;SDS011;21234;48.690;9.016;2022-08-25T04:13:06;5.33;;;3.97;;
705;SDS011;21234;48.690;9.016;2022-08-25T04:15:33;4.10;;;3.70;;
705;SDS011;21234;48.690;9.016;2022-08-25T04:18:01;3.30;;;3.00;;
705;SDS011;21234;48.690;9.016;2022-08-25T04:20:28;3.90;;;3.60;;
705;SDS011;21234;48.690;9.016;2022-08-25T04:22:54;4.00;;;3.70;;
705;SDS011;21234;48.690;9.016;2022-08-25T04:25:24;4.23;;;3.43;;
705;SDS011;21234;48.690;9.016;2022-08-25T04:27:52;3.87;;;3.57;;
705;SDS011;21234;48.690;9.016;2022-08-25T04:30:19;4.20;;;3.53;;
705;SDS011;21234;48.690;9.016;2022-08-25T04:32:47;4.27;;;3.73;;
705;SDS011;21234;48.690;9.016;2022-08-25T04:35:13;4.27;;;3.97;;
705;SDS011;21234;48.690;9.016;2022-08-25T04:37:40;3.13;;;2.83;;
705;SDS011;21234;48.690;9.016;2022-08-25T04:40:08;3.87;;;3.57;;
705;SDS011;21234;48.690;9.016;2022-08-25T04:42:35;4.03;;;3.63;;
705;SDS011;21234;48.690;9.016;2022-08-25T04:45:05;4.27;;;3.97;;
705;SDS011;21234;48.690;9.016;2022-08-25T04:47:35;3.50;;;3.20;;
705;SDS011;21234;48.690;9.016;2022-08-25T04:50:02;4.50;;;3.80;;
705;SDS011;21234;48.690;9.016;2022-08-25T04:52:29;3.43;;;3.13;;
705;SDS011;21234;48.690;9.016;2022-08-25T04:54:56;3.47;;;3.17;;
705;SDS011;21234;48.690;9.016;2022-08-25T04:57:23;3.60;;;3.30;;
705;SDS011;21234;48.690;9.016;2022-08-25T04:59:50;3.80;;;3.23;;
705;SDS011;21234;48.690;9.016;2022-08-25T05:02:19;6.90;;;3.70;;
705;SDS011;21234;48.690;9.016;2022-08-25T05:04:46;3.87;;;3.27;;
705;SDS011;21234;48.690;9.016;2022-08-25T05:07:13;3.70;;;3.40;;
705;SDS011;21234;48.690;9.016;2022-08-25T05:09:40;3.90;;;3.60;;
705;SDS011;21234;48.690;9.016;2022-08-25T05:12:07;4.10;;;3.67;;
705;SDS011;21234;48.690;9.016;2022-08-25T05:14:34;4.83;;;3.67;;
705;SDS011;21234;48.690;9.016;2022-08-25T05:17:01;4.07;;;3.67;;
705;SDS011;21234;48.690;9.016;2022-08-25T05:19:29;4.20;;;3.70;;
705;SDS011;21234;48.690;9.016;2022-08-25T05:21:55;4.50;;;3.83;;
705;SDS011;21234;48.690;9.016;2022-08-25T05:24:22;5.07;;;4.13;;
705;SDS011;21234;48.690;9.016;2022-08-25T05:26:49;3.97;;;3.67;;
705;SDS011;21234;48.690;9.016;2022-08-25T05:29:16;4.40;;;4.00;;
705;SDS011;21234;48.690;9.016;2022-08-25T05:31:43;4.20;;;3.77;;
705;SDS011;21234;48.690;9.016;2022-08-25T05:34:10;4.20;;;3.80;;
705;SDS011;21234;48.690;9.016;2022-08-25T05:36:38;5.37;;;4.80;;
705;SDS011;21234;48.690;9.016;2022-08-25T05:39:07;4.77;;;4.20;;
705;SDS011;21234;48.690;9.016;2022-08-25T05:41:34;5.10;;;3.80;;
705;SDS011;21234;48.690;9.016;2022-08-25T05:44:01;4.43;;;4.03;;
705;SDS011;21234;48.690;9.016;2022-08-25T05:46:28;4.20;;;3.80;;
705;SDS011;21234;48.690;9.016;2022-08-25T05:48:55;5.00;;;4.50;;
705;SDS011;21234;48.690;9.016;2022-08-25T05:51:22;3.90;;;3.60;;
705;SDS011;21234;48.690;9.016;2022-08-25T05:53:50;8.00;;;4.73;;
705;SDS011;21234;48.690;9.016;2022-08-25T05:56:17;4.37;;;3.97;;
705;SDS011;21234;48.690;9.016;2022-08-25T05:58:44;5.90;;;4.60;;
705;SDS011;21234;48.690;9.016;2022-08-25T06:01:18;5.10;;;4.63;;
705;SDS011;21234;48.690;9.016;2022-08-25T06:04:04;8.00;;;4.83;;
705;SDS011;21234;48.690;9.016;2022-08-25T06:06:31;5.07;;;4.60;;
705;SDS011;21234;48.690;9.016;2022-08-25T06:09:00;5.13;;;4.07;;
705;SDS011;21234;48.690;9.016;2022-08-25T06:11:27;4.80;;;4.40;;
705;SDS011;21234;48.690;9.016;2022-08-25T06:13:54;7.47;;;5.33;;
705;SDS011;21234;48.690;9.016;2022-08-25T06:16:21;7.70;;;5.70;;
705;SDS011;21234;48.690;9.016;2022-08-25T06:18:48;7.47;;;4.50;;
705;SDS011;21234;48.690;9.016;2022-08-25T06:21:15;4.80;;;4.07;;
705;SDS011;21234;48.690;9.016;2022-08-25T06:23:42;7.90;;;4.20;;
705;SDS011;21234;48.690;9.016;2022-08-25T06:26:11;4.83;;;4.30;;
705;SDS011;21234;48.690;9.016;2022-08-25T06:28:39;5.90;;;4.73;;
705;SDS011;21234;48.690;9.016;2022-08-25T06:31:06;5.90;;;5.20;;
705;SDS011;21234;48.690;9.016;2022-08-25T06:33:33;6.33;;;5.70;;
705;SDS011;21234;48.690;9.016;2022-08-25T06:36:00;5.77;;;5.17;;
705;SDS011;21234;48.690;9.016;2022-08-25T06:38:27;5.80;;;5.20;;
705;SDS011;21234;48.690;9.016;2022-08-25T06:40:54;6.10;;;5.37;;
705;SDS011;21234;48.690;9.016;2022-08-25T06:43:23;6.83;;;5.03;;
705;SDS011;21234;48.690;9.016;2022-08-25T06:45:50;5.10;;;4.60;;
705;SDS011;21234;48.690;9.016;2022-08-25T06:48:17;5.20;;;4.57;;
705;SDS011;21234;48.690;9.016;2022-08-25T06:50:43;6.47;;;5.03;;
705;SDS011;21234;48.690;9.016;2022-08-25T06:53:11;5.63;;;5.00;;
705;SDS011;21234;48.690;9.016;2022-08-25T06:55:38;4.97;;;4.07;;
705;SDS011;21234;48.690;9.016;2022-08-25T06:58:06;5.77;;;5.23;;
705;SDS011;21234;48.690;9.016;2022-08-25T07:00:35;5.13;;;4.73;;
705;SDS011;21234;48.690;9.016;2022-08-25T07:03:02;5.23;;;4.73;;
705;SDS011;21234;48.690;9.016;2022-08-25T07:05:29;5.47;;;4.97;;
705;SDS011;21234;48.690;9.016;2022-08-25T07:07:56;5.40;;;4.50;;
705;SDS011;21234;48.690;9.016;2022-08-25T07:10:23;5.27;;;4.73;;
705;SDS011;21234;48.690;9.016;2022-08-25T07:12:50;6.00;;;5.40;;
705;SDS011;21234;48.690;9.016;2022-08-25T07:15:17;5.10;;;4.60;;
705;SDS011;21234;48.690;9.016;2022-08-25T07:17:45;5.03;;;4.53;;
705;SDS011;21234;48.690;9.016;2022-08-25T07:20:13;5.30;;;4.80;;
705;SDS011;21234;48.690;9.016;2022-08-25T07:22:41;10.60;;;5.40;;
705;SDS011;21234;48.690;9.016;2022-08-25T07:25:08;6.37;;;5.63;;
705;SDS011;21234;48.690;9.016;2022-08-25T07:27:36;5.53;;;4.83;;
705;SDS011;21234;48.690;9.016;2022-08-25T07:30:04;6.43;;;5.30;;
705;SDS011;21234;48.690;9.016;2022-08-25T07:32:33;5.93;;;5.43;;
705;SDS011;21234;48.690;9.016;2022-08-25T07:35:01;5.03;;;4.60;;
705;SDS011;21234;48.690;9.016;2022-08-25T07:37:43;6.33;;;4.63;;
705;SDS011;21234;48.690;9.016;2022-08-25T07:40:13;5.20;;;4.53;;
705;SDS011;21234;48.690;9.016;2022-08-25T07:42:41;5.67;;;5.17;;
705;SDS011;21234;48.690;9.016;2022-08-25T07:45:09;5.07;;;4.60;;
705;SDS011;21234;48.690;9.016;2022-08-25T07:47:37;5.77;;;5.27;;
705;SDS011;21234;48.690;9.016;2022-08-25T07:50:06;4.67;;;4.30;;
705;SDS011;21234;48.690;9.016;2022-08-25T07:52:35;5.03;;;4.63;;
705;SDS011;21234;48.690;9.016;2022-08-25T07:55:03;5.37;;;4.87;;
705;SDS011;21234;48.690;9.016;2022-08-25T07:57:31;5.97;;;5.37;;
705;SDS011;21234;48.690;9.016;2022-08-25T07:59:57;4.90;;;4.50;;
705;SDS011;21234;48.690;9.016;2022-08-25T08:02:25;5.20;;;4.70;;
705;SDS011;21234;48.690;9.016;2022-08-25T08:04:52;4.63;;;4.20;;
705;SDS011;21234;48.690;9.016;2022-08-25T08:07:21;6.00;;;5.40;;
705;SDS011;21234;48.690;9.016;2022-08-25T08:09:50;6.47;;;5.87;;
705;SDS011;21234;48.690;9.016;2022-08-25T08:12:17;5.90;;;5.30;;
705;SDS011;21234;48.690;9.016;2022-08-25T08:14:44;5.80;;;5.30;;
705;SDS011;21234;48.690;9.016;2022-08-25T08:17:11;6.83;;;5.30;;
705;SDS011;21234;48.690;9.016;2022-08-25T08:19:38;5.00;;;4.60;;
705;SDS011;21234;48.690;9.016;2022-08-25T08:22:05;7.53;;;5.50;;
705;SDS011;21234;48.690;9.016;2022-08-25T08:24:34;5.77;;;4.80;;
705;SDS011;21234;48.690;9.016;2022-08-25T08:27:03;5.83;;;4.70;;
705;SDS011;21234;48.690;9.016;2022-08-25T08:29:31;8.20;;;5.77;;
705;SDS011;21234;48.690;9.016;2022-08-25T08:32:00;6.27;;;5.07;;
705;SDS011;21234;48.690;9.016;2022-08-25T08:34:29;5.17;;;4.77;;
705;SDS011;21234;48.690;9.016;2022-08-25T08:36:56;5.70;;;5.20;;
705;SDS011;21234;48.690;9.016;2022-08-25T08:39:24;4.63;;;4.23;;
705;SDS011;21234;48.690;9.016;2022-08-25T08:41:56;5.90;;;5.30;;
705;SDS011;21234;48.690;9.016;2022-08-25T08:47:53;8.40;;;5.97;;
705;SDS011;21234;48.690;9.016;2022-08-25T08:50:36;6.10;;;5.50;;
705;SDS011;21234;48.690;9.016;2022-08-25T08:53:08;5.60;;;5.10;;
705;SDS011;21234;48.690;9.016;2022-08-25T08:55:40;5.47;;;5.03;;
705;SDS011;21234;48.690;9.016;2022-08-25T08:58:11;5.03;;;4.53;;
705;SDS011;21234;48.690;9.016;2022-08-25T09:00:45;5.93;;;5.27;;
705;SDS011;21234;48.690;9.016;2022-08-25T09:03:15;6.83;;;6.17;;
705;SDS011;21234;48.690;9.016;2022-08-25T09:05:53;5.90;;;5.40;;
705;SDS011;21234;48.690;9.016;2022-08-25T09:08:23;5.40;;;4.90;;
705;SDS011;21234;48.690;9.016;2022-08-25T09:10:53;4.30;;;4.00;;
705;SDS011;21234;48.690;9.016;2022-08-25T09:13:32;7.67;;;5.37;;
705;SDS011;21234;48.690;9.016;2022-08-25T09:16:05;5.10;;;4.20;;
705;SDS011;21234;48.690;9.016;2022-08-25T09:18:57;6.17;;;4.60;;
705;SDS011;21234;48.690;9.016;2022-08-25T09:21:33;5.17;;;4.67;;
705;SDS011;21234;48.690;9.016;2022-08-25T09:24:16;5.20;;;4.77;;
705;SDS011;21234;48.690;9.016;2022-08-25T09:26:55;5.37;;;4.87;;
705;SDS011;21234;48.690;9.016;2022-08-25T09:29:35;5.73;;;5.23;;
705;SDS011;21234;48.690;9.016;2022-08-25T09:32:13;7.10;;;5.27;;
705;SDS011;21234;48.690;9.016;2022-08-25T09:34:41;5.23;;;4.73;;
705;SDS011;21234;48.690;9.016;2022-08-25T09:37:10;4.87;;;4.47;;
705;SDS011;21234;48.690;9.016;2022-08-25T09:39:37;5.60;;;5.00;;
705;SDS011;21234;48.690;9.016;2022-08-25T09:42:04;4.93;;;4.23;;
705;SDS011;21234;48.690;9.016;2022-08-25T09:44:32;6.63;;;4.40;;
705;SDS011;21234;48.690;9.016;2022-08-25T09:47:12;6.03;;;5.53;;
705;SDS011;21234;48.690;9.016;2022-08-25T09:49:48;5.80;;;5.30;;
705;SDS011;21234;48.690;9.016;2022-08-25T09:57:58;4.57;;;4.17;;
705;SDS011;21234;48.690;9.016;2022-08-25T10:00:30;4.47;;;4.07;;
705;SDS011;21234;48.690;9.016;2022-08-25T10:03:04;6.10;;;3.97;;
705;SDS011;21234;48.690;9.016;2022-08-25T10:05:38;5.63;;;5.03;;
705;SDS011;21234;48.690;9.016;2022-08-25T10:08:21;4.93;;;4.53;;
705;SDS011;21234;48.690;9.016;2022-08-25T10:10:54;5.37;;;4.87;;
705;SDS011;21234;48.690;9.016;2022-08-25T10:13:31;5.10;;;4.60;;
705;SDS011;21234;48.690;9.016;2022-08-25T10:16:04;5.00;;;4.50;;
705;SDS011;21234;48.690;9.016;2022-08-25T10:18:33;5.60;;;5.03;;
705;SDS011;21234;48.690;9.016;2022-08-25T10:21:05;5.90;;;5.30;;
705;SDS011;21234;48.690;9.016;2022-08-25T10:23:35;5.97;;;5.37;;
705;SDS011;21234;48.690;9.016;2022-08-25T10:26:08;5.20;;;4.80;;
705;SDS011;21234;48.690;9.016;2022-08-25T10:28:39;5.13;;;4.60;;
705;SDS011;21234;48.690;9.016;2022-08-25T10:31:18;5.30;;;3.87;;
705;SDS011;21234;48.690;9.016;2022-08-25T10:33:55;6.13;;;4.43;;
705;SDS011;21234;48.690;9.016;2022-08-25T10:36:36;4.77;;;4.37;;
705;SDS011;21234;48.690;9.016;2022-08-25T10:39:15;7.23;;;4.73;;
705;SDS011;21234;48.690;9.016;2022-08-25T10:41:53;5.20;;;4.70;;
705;SDS011;21234;48.690;9.016;2022-08-25T10:44:30;3.97;;;3.67;;
705;SDS011;21234;48.690;9.016;2022-08-25T10:50:21;4.40;;;4.03;;
705;SDS011;21234;48.690;9.016;2022-08-25T10:52:56;6.00;;;4.40;;
705;SDS011;21234;48.690;9.016;2022-08-25T10:55:41;6.10;;;4.60;;
705;SDS011;21234;48.690;9.016;2022-08-25T10:58:17;5.17;;;4.70;;
705;SDS011;21234;48.690;9.016;2022-08-25T11:00:54;4.33;;;3.93;;
705;SDS011;21234;48.690;9.016;2022-08-25T11:03:31;5.20;;;4.80;;
705;SDS011;21234;48.690;9.016;2022-08-25T11:06:10;4.33;;;3.70;;
705;SDS011;21234;48.690;9.016;2022-08-25T11:08:42;5.93;;;4.87;;
705;SDS011;21234;48.690;9.016;2022-08-25T11:11:15;5.10;;;4.70;;
705;SDS011;21234;48.690;9.016;2022-08-25T11:13:49;5.30;;;4.80;;
705;SDS011;21234;48.690;9.016;2022-08-25T11:16:21;4.50;;;4.10;;
705;SDS011;21234;48.690;9.016;2022-08-25T11:19:02;4.50;;;4.10;;
705;SDS011;21234;48.690;9.016;2022-08-25T11:21:38;4.50;;;4.17;;
705;SDS011;21234;48.690;9.016;2022-08-25T11:24:25;4.77;;;4.20;;
705;SDS011;21234;48.690;9.016;2022-08-25T11:26:59;3.97;;;3.67;;
705;SDS011;21234;48.690;9.016;2022-08-25T11:29:30;5.00;;;4.60;;
705;SDS011;21234;48.690;9.016;2022-08-25T11:32:02;4.43;;;4.03;;
705;SDS011;21234;48.690;9.016;2022-08-25T11:34:31;4.33;;;3.57;;
705;SDS011;21234;48.690;9.016;2022-08-25T11:37:02;3.70;;;3.40;;
705;SDS011;21234;48.690;9.016;2022-08-25T11:39:40;4.10;;;3.80;;
705;SDS011;21234;48.690;9.016;2022-08-25T11:42:24;6.87;;;4.30;;
705;SDS011;21234;48.690;9.016;2022-08-25T11:45:03;3.93;;;3.63;;
705;SDS011;21234;48.690;9.016;2022-08-25T11:47:42;3.90;;;3.60;;
705;SDS011;21234;48.690;9.016;2022-08-25T11:50:27;4.17;;;3.77;;
705;SDS011;21234;48.690;9.016;2022-08-25T11:52:59;5.07;;;4.67;;
705;SDS011;21234;48.690;9.016;2022-08-25T11:55:46;4.17;;;3.87;;
705;SDS011;21234;48.690;9.016;2022-08-25T11:58:29;5.40;;;4.23;;
705;SDS011;21234;48.690;9.016;2022-08-25T12:01:05;4.70;;;4.30;;
705;SDS011;21234;48.690;9.016;2022-08-25T12:03:51;4.50;;;4.10;;
705;SDS011;21234;48.690;9.016;2022-08-25T12:06:38;4.73;;;4.33;;
705;SDS011;21234;48.690;9.016;2022-08-25T12:12:57;3.77;;;3.37;;
705;SDS011;21234;48.690;9.016;2022-08-25T12:15:31;4.63;;;4.27;;
705;SDS011;21234;48.690;9.016;2022-08-25T12:18:10;4.93;;;4.50;;
705;SDS011;21234;48.690;9.016;2022-08-25T12:23:39;3.80;;;3.50;;
705;SDS011;21234;48.690;9.016;2022-08-25T12:26:08;4.70;;;4.30;;
705;SDS011;21234;48.690;9.016;2022-08-25T12:28:50;4.27;;;3.87;;
705;SDS011;21234;48.690;9.016;2022-08-25T12:31:44;3.80;;;3.50;;
705;SDS011;21234;48.690;9.016;2022-08-25T12:34:25;3.80;;;3.50;;
705;SDS011;21234;48.690;9.016;2022-08-25T12:37:10;4.00;;;3.60;;
705;SDS011;21234;48.690;9.016;2022-08-25T12:39:43;5.10;;;4.07;;
705;SDS011;21234;48.690;9.016;2022-08-25T12:42:21;3.60;;;3.30;;
705;SDS011;21234;48.690;9.016;2022-08-25T12:47:52;3.13;;;2.83;;
705;SDS011;21234;48.690;9.016;2022-08-25T12:50:26;4.33;;;3.30;;
705;SDS011;21234;48.690;9.016;2022-08-25T12:52:58;3.30;;;3.00;;
705;SDS011;21234;48.690;9.016;2022-08-25T12:55:39;4.50;;;4.17;;
705;SDS011;21234;48.690;9.016;2022-08-25T12:58:11;4.10;;;3.80;;
705;SDS011;21234;48.690;9.016;2022-08-25T13:00:46;3.57;;;3.37;;
705;SDS011;21234;48.690;9.016;2022-08-25T13:06:36;4.60;;;3.87;;
705;SDS011;21234;48.690;9.016;2022-08-25T13:09:29;4.70;;;4.27;;
705;SDS011;21234;48.690;9.016;2022-08-25T13:12:25;3.87;;;3.57;;
705;SDS011;21234;48.690;9.016;2022-08-25T13:14:58;4.20;;;3.80;;
705;SDS011;21234;48.690;9.016;2022-08-25T13:17:25;3.20;;;3.00;;
705;SDS011;21234;48.690;9.016;2022-08-25T13:22:44;3.23;;;2.93;;
705;SDS011;21234;48.690;9.016;2022-08-25T13:25:14;3.03;;;2.83;;
705;SDS011;21234;48.690;9.016;2022-08-25T13:27:48;4.93;;;3.97;;
705;SDS011;21234;48.690;9.016;2022-08-25T13:30:25;3.83;;;3.53;;
705;SDS011;21234;48.690;9.016;2022-08-25T13:32:53;3.70;;;3.40;;
705;SDS011;21234;48.690;9.016;2022-08-25T13:35:21;3.57;;;3.27;;
705;SDS011;21234;48.690;9.016;2022-08-25T13:37:50;3.20;;;2.90;;
705;SDS011;21234;48.690;9.016;2022-08-25T13:40:20;3.33;;;3.03;;
705;SDS011;21234;48.690;9.016;2022-08-25T13:42:51;6.60;;;3.97;;
705;SDS011;21234;48.690;9.016;2022-08-25T13:45:20;3.47;;;3.23;;
705;SDS011;21234;48.690;9.016;2022-08-25T13:47:48;3.90;;;3.60;;
705;SDS011;21234;48.690;9.016;2022-08-25T13:50:19;4.73;;;4.03;;
705;SDS011;21234;48.690;9.016;2022-08-25T13:52:57;3.87;;;3.57;;
705;SDS011;21234;48.690;9.016;2022-08-25T13:55:27;3.70;;;3.40;;
705;SDS011;21234;48.690;9.016;2022-08-25T13:57:58;5.20;;;3.63;;
705;SDS011;21234;48.690;9.016;2022-08-25T14:00:28;3.87;;;3.57;;
705;SDS011;21234;48.690;9.016;2022-08-25T14:02:59;3.37;;;3.07;;
705;SDS011;21234;48.690;9.016;2022-08-25T14:05:29;5.30;;;3.17;;
705;SDS011;21234;48.690;9.016;2022-08-25T14:07:59;3.27;;;2.97;;
705;SDS011;21234;48.690;9.016;2022-08-25T14:10:31;2.90;;;2.70;;
705;SDS011;21234;48.690;9.016;2022-08-25T14:13:08;3.60;;;3.30;;
705;SDS011;21234;48.690;9.016;2022-08-25T14:15:42;3.60;;;3.30;;
705;SDS011;21234;48.690;9.016;2022-08-25T14:18:12;3.60;;;3.30;;
705;SDS011;21234;48.690;9.016;2022-08-25T14:20:44;3.20;;;3.00;;
705;SDS011;21234;48.690;9.016;2022-08-25T14:23:16;3.30;;;3.10;;
705;SDS011;21234;48.690;9.016;2022-08-25T14:25:44;3.43;;;3.13;;
705;SDS011;21234;48.690;9.016;2022-08-25T14:28:14;3.20;;;3.00;;
705;SDS011;21234;48.690;9.016;2022-08-25T14:30:44;5.40;;;3.20;;
705;SDS011;21234;48.690;9.016;2022-08-25T14:33:14;3.03;;;2.83;;
705;SDS011;21234;48.690;9.016;2022-08-25T14:35:45;2.80;;;2.60;;
705;SDS011;21234;48.690;9.016;2022-08-25T14:38:14;3.77;;;3.47;;
705;SDS011;21234;48.690;9.016;2022-08-25T14:40:41;3.30;;;3.00;;
705;SDS011;21234;48.690;9.016;2022-08-25T14:43:08;3.67;;;3.37;;
705;SDS011;21234;48.690;9.016;2022-08-25T14:45:38;3.90;;;3.60;;
705;SDS011;21234;48.690;9.016;2022-08-25T14:48:07;3.30;;;3.10;;
705;SDS011;21234;48.690;9.016;2022-08-25T14:50:38;3.40;;;3.10;;
705;SDS011;21234;48.690;9.016;2022-08-25T14:53:06;3.13;;;2.93;;
705;SDS011;21234;48.690;9.016;2022-08-25T14:55:32;3.70;;;3.40;;
705;SDS011;21234;48.690;9.016;2022-08-25T14:58:00;3.30;;;3.10;;
705;SDS011;21234;48.690;9.016;2022-08-25T15:00:26;4.00;;;3.70;;
705;SDS011;21234;48.690;9.016;2022-08-25T15:02:55;3.67;;;3.10;;
705;SDS011;21234;48.690;9.016;2022-08-25T15:05:23;3.33;;;3.10;;
705;SDS011;21234;48.690;9.016;2022-08-25T15:07:51;3.43;;;3.13;;
705;SDS011;21234;48.690;9.016;2022-08-25T15:10:37;2.77;;;2.57;;
705;SDS011;21234;48.690;9.016;2022-08-25T15:13:04;2.93;;;2.70;;
705;SDS011;21234;48.690;9.016;2022-08-25T15:15:31;2.57;;;2.37;;
705;SDS011;21234;48.690;9.016;2022-08-25T15:18:03;3.10;;;2.90;;
705;SDS011;21234;48.690;9.016;2022-08-25T15:20:30;3.50;;;2.90;;
705;SDS011;21234;48.690;9.016;2022-08-25T15:22:57;2.80;;;2.60;;
705;SDS011;21234;48.690;9.016;2022-08-25T15:25:24;3.47;;;3.17;;
705;SDS011;21234;48.690;9.016;2022-08-25T15:27:50;3.50;;;2.83;;
705;SDS011;21234;48.690;9.016;2022-08-25T15:30:18;3.50;;;3.20;;
705;SDS011;21234;48.690;9.016;2022-08-25T15:32:45;3.03;;;2.83;;
705;SDS011;21234;48.690;9.016;2022-08-25T15:35:13;2.80;;;2.60;;
705;SDS011;21234;48.690;9.016;2022-08-25T15:37:40;3.77;;;3.47;;
705;SDS011;21234;48.690;9.016;2022-08-25T15:40:08;4.20;;;3.07;;
705;SDS011;21234;48.690;9.016;2022-08-25T15:42:35;3.17;;;2.97;;
705;SDS011;21234;48.690;9.016;2022-08-25T15:45:02;4.00;;;3.70;;
705;SDS011;21234;48.690;9.016;2022-08-25T15:47:29;4.13;;;3.47;;
705;SDS011;21234;48.690;9.016;2022-08-25T15:50:00;4.17;;;3.80;;
705;SDS011;21234;48.690;9.016;2022-08-25T15:52:31;3.80;;;3.50;;
705;SDS011;21234;48.690;9.016;2022-08-25T15:54:58;4.10;;;3.80;;
705;SDS011;21234;48.690;9.016;2022-08-25T15:57:25;3.90;;;3.60;;
705;SDS011;21234;48.690;9.016;2022-08-25T15:59:52;4.60;;;3.50;;
705;SDS011;21234;48.690;9.016;2022-08-25T16:02:19;3.60;;;3.30;;